Time;durP1;ratioP1;P1;durP2;ratioP2;P2;SDS_P1;SDS_P2;PMS_P1;PMS_P2;Temp;Humidity;BMP_temperature;BMP_pressure;BME280_temperature;BME280_humidity;BME280_pressure;Samples;Min_cycle;Max_cycle;Signal;HPM_P1;HPM_P2
2022/05/04 00:01:13;;;;;;;15.40;10.18;;;;;;;;;;5016063;28;20026;-82
2022/05/04 00:03:39;;;;;;;15.38;10.65;;;;;;;;;;5026332;28;20036;-83
2022/05/04 00:06:06;;;;;;;15.27;10.98;;;13.00;99.90;;;;;;5029301;28;20038;-84
2022/05/04 00:08:32;;;;;;;13.05;9.95;;;;;;;;;;5003095;28;20610;-81
2022/05/04 00:10:58;;;;;;;13.98;10.88;;;;;;;;;;5027824;28;20089;-85
2022/05/04 00:13:24;;;;;;;15.80;11.20;;;12.90;99.90;;;;;;5019354;28;20034;-82
2022/05/04 00:15:50;;;;;;;14.90;11.05;;;;;;;;;;5009605;28;20034;-84
2022/05/04 00:18:16;;;;;;;14.68;10.73;;;;;;;;;;5033843;28;20558;-84
2022/05/04 00:20:42;;;;;;;26.55;14.88;;;;;;;;;;5016513;28;20034;-83
2022/05/04 00:23:08;;;;;;;14.80;10.13;;;;;;;;;;5015717;28;20049;-84
2022/05/04 00:25:34;;;;;;;14.32;10.38;;;;;;;;;;5025985;28;20029;-81
2022/05/04 00:28:02;;;;;;;15.82;11.60;;;;;;;;;;5014282;28;20030;-84
2022/05/04 00:30:28;;;;;;;16.52;11.02;;;;;;;;;;5030801;28;20076;-85
2022/05/04 00:32:54;;;;;;;14.45;11.20;;;;;;;;;;5011683;28;20518;-85
2022/05/04 00:35:20;;;;;;;13.27;10.45;;;;;;;;;;5000831;28;20480;-83
2022/05/04 00:37:46;;;;;;;13.40;10.27;;;;;;;;;;5030018;28;20025;-83
2022/05/04 00:40:12;;;;;;;15.23;11.25;;;;;;;;;;4962550;28;1251014;-83
2022/05/04 00:42:38;;;;;;;14.50;11.70;;;;;;;;;;5012910;28;20026;-84
2022/05/04 00:45:05;;;;;;;13.60;11.00;;;;;;;;;;5030418;28;20026;-86
2022/05/04 00:47:31;;;;;;;13.55;10.23;;;;;;;;;;5013760;28;20058;-86
2022/05/04 00:50:04;;;;;;;13.52;10.75;;;12.40;99.90;;;;;;5010614;28;20029;-87
2022/05/04 00:52:30;;;;;;;12.13;9.82;;;;;;;;;;4997117;28;20081;-86
2022/05/04 00:54:56;;;;;;;15.93;10.55;;;12.30;99.90;;;;;;5007621;28;20037;-85
2022/05/04 00:58:54;;;;;;;16.15;10.95;;;12.30;99.90;;;;;;4996429;28;20018;-86
2022/05/04 01:00:09;;;;;;;13.27;10.90;;;12.20;99.90;;;;;;5009974;28;20102;-84
2022/05/04 01:02:36;;;;;;;14.77;11.43;;;12.20;99.90;;;;;;5016779;28;20034;-87
2022/05/04 01:05:02;;;;;;;14.60;10.93;;;12.10;99.90;;;;;;5021588;28;20251;-84
2022/05/04 01:07:28;;;;;;;14.02;10.43;;;12.10;99.90;;;;;;5024577;28;20034;-83
2022/05/04 01:09:53;;;;;;;14.38;10.45;;;12.00;99.90;;;;;;5001585;28;20048;-83
2022/05/04 01:12:23;;;;;;;17.25;10.55;;;12.40;99.90;;;;;;5015707;28;20034;-85
2022/05/04 01:14:49;;;;;;;15.38;10.65;;;;;;;;;;5033683;28;20030;-81
2022/05/04 01:17:14;;;;;;;12.23;9.85;;;11.90;99.90;;;;;;5035411;28;20038;-83
2022/05/04 01:19:40;;;;;;;13.13;10.35;;;12.00;99.90;;;;;;5014773;28;20030;-83
2022/05/04 01:22:06;;;;;;;13.25;9.77;;;;;;;;;;5000454;28;20038;-82
2022/05/04 01:24:32;;;;;;;13.55;9.98;;;;;;;;;;5001343;28;20057;-83
2022/05/04 01:26:58;;;;;;;15.02;10.50;;;11.70;99.90;;;;;;5013279;28;20083;-83
2022/05/04 01:29:24;;;;;;;11.73;9.20;;;;;;;;;;5017213;28;20030;-84
2022/05/04 01:31:50;;;;;;;13.38;9.63;;;;;;;;;;5032848;28;20069;-86
2022/05/04 01:34:17;;;;;;;14.25;10.75;;;11.70;99.90;;;;;;4995638;28;20046;-81
2022/05/04 01:36:43;;;;;;;12.00;9.55;;;;;;;;;;4985510;28;20034;-84
2022/05/04 01:39:09;;;;;;;11.55;9.63;;;11.60;99.90;;;;;;5034484;28;20053;-81
2022/05/04 01:44:19;;;;;;;11.55;9.15;;;11.80;99.90;;;;;;5011855;28;20041;-82
2022/05/04 01:46:45;;;;;;;12.95;9.68;;;;;;;;;;5007011;28;20034;-84
2022/05/04 01:49:11;;;;;;;13.45;9.40;;;;;;;;;;5020665;28;20472;-84
2022/05/04 01:51:37;;;;;;;13.43;9.05;;;11.50;99.90;;;;;;5001989;28;20856;-84
2022/05/04 01:54:03;;;;;;;14.10;9.70;;;11.40;99.90;;;;;;5017842;28;20076;-85
2022/05/04 01:56:29;;;;;;;12.93;9.48;;;;;;;;;;5016875;28;20052;-83
2022/05/04 01:58:55;;;;;;;12.90;9.25;;;11.20;99.90;;;;;;5016087;28;20472;-81
2022/05/04 02:01:21;;;;;;;11.15;9.13;;;;;;;;;;4998227;28;20062;-82
2022/05/04 02:03:47;;;;;;;14.00;9.85;;;11.30;99.90;;;;;;5031067;28;20057;-81
2022/05/04 02:06:13;;;;;;;14.27;9.80;;;;;;;;;;5000766;28;20467;-81
2022/05/04 02:08:40;;;;;;;12.25;9.27;;;11.30;99.90;;;;;;5016685;28;20034;-83
2022/05/04 02:11:06;;;;;;;11.80;8.88;;;11.40;99.90;;;;;;5004342;28;20053;-86
2022/05/04 02:13:32;;;;;;;12.63;8.40;;;11.30;99.90;;;;;;5016995;28;20092;-84
2022/05/04 02:15:58;;;;;;;11.48;9.23;;;;;;;;;;5003078;28;20064;-83
2022/05/04 02:18:23;;;;;;;13.82;8.63;;;11.30;99.90;;;;;;5018058;28;20025;-83
2022/05/04 02:20:49;;;;;;;13.90;8.52;;;11.30;99.90;;;;;;5000654;28;20029;-83
2022/05/04 02:23:15;;;;;;;11.82;8.40;;;11.50;99.90;;;;;;4992262;28;20025;-84
2022/05/04 02:25:41;;;;;;;11.93;8.85;;;;;;;;;;5017205;28;20465;-85
2022/05/04 02:28:06;;;;;;;10.50;8.85;;;11.10;99.90;;;;;;5001767;28;20126;-82
2022/05/04 02:30:32;;;;;;;11.65;8.65;;;;;;;;;;5014115;28;20066;-82
2022/05/04 02:32:58;;;;;;;11.50;8.43;;;11.10;99.90;;;;;;5014603;28;20102;-83
2022/05/04 02:38:16;;;;;;;10.88;8.55;;;11.10;99.90;;;;;;5004446;28;20391;-85
2022/05/04 02:43:18;;;;;;;12.55;8.30;;;;;;;;;;5141994;22;20041;-82
2022/05/04 02:45:45;;;;;;;12.10;8.82;;;;;;;;;;5042483;28;20029;-79
2022/05/04 02:48:12;;;;;;;13.20;9.07;;;;;;;;;;5054051;28;20036;-79
2022/05/04 02:50:39;;;;;;;12.55;8.32;;;;;;;;;;5020995;28;20025;-79
2022/05/04 02:53:07;;;;;;;12.98;9.02;;;;;;;;;;5038823;28;20381;-79
2022/05/04 02:55:36;;;;;;;14.80;9.48;;;;;;;;;;5037810;28;20056;-80
2022/05/04 02:58:03;;;;;;;12.13;8.82;;;;;;;;;;5020598;28;20499;-79
2022/05/04 03:00:30;;;;;;;12.05;8.43;;;;;;;;;;5020403;28;20029;-79
2022/05/04 03:02:58;;;;;;;10.45;8.63;;;;;;;;;;5038283;28;20029;-78
2022/05/04 03:05:30;;;;;;;11.80;8.90;;;;;;;;;;5024147;28;20030;-79
2022/05/04 03:07:57;;;;;;;11.98;8.77;;;;;;;;;;5016258;28;20029;-79
2022/05/04 03:10:24;;;;;;;12.85;9.50;;;;;;;;;;5005648;28;20437;-79
2022/05/04 03:12:51;;;;;;;11.35;8.57;;;;;;;;;;5001005;28;20397;-79
2022/05/04 03:15:19;;;;;;;12.77;8.68;;;;;;;;;;5009269;28;20113;-80
2022/05/04 03:17:46;;;;;;;11.55;9.00;;;;;;;;;;5024005;28;20029;-80
2022/05/04 03:20:16;;;;;;;9.95;8.48;;;;;;;;;;5029619;28;20029;-78
2022/05/04 03:22:43;;;;;;;9.85;7.70;;;;;;;;;;5051078;28;20021;-80
2022/05/04 03:25:10;;;;;;;10.93;8.32;;;;;;;;;;5033242;28;20030;-80
2022/05/04 03:27:37;;;;;;;11.25;8.80;;;;;;;;;;5025025;28;20029;-80
2022/05/04 03:30:05;;;;;;;13.38;8.75;;;;;;;;;;5041382;28;20037;-79
2022/05/04 03:32:32;;;;;;;13.60;8.35;;;;;;;;;;5042010;28;20075;-79
2022/05/04 03:34:58;;;;;;;10.48;8.20;;;;;;;;;;5021529;28;20401;-80
2022/05/04 03:37:27;;;;;;;13.40;8.80;;;;;;;;;;5005819;28;20091;-80
2022/05/04 03:39:54;;;;;;;11.00;8.98;;;;;;;;;;5021895;28;20025;-81
2022/05/04 03:42:23;;;;;;;11.82;8.80;;;;;;;;;;5042466;28;20038;-80
2022/05/04 03:44:50;;;;;;;12.25;8.73;;;;;;;;;;5009068;28;20041;-80
2022/05/04 03:47:17;;;;;;;14.32;8.18;;;;;;;;;;5042099;28;20532;-80
2022/05/04 03:49:43;;;;;;;10.63;8.40;;;;;;;;;;5038146;28;20470;-79
2022/05/04 03:52:11;;;;;;;11.10;8.30;;;;;;;;;;5033448;28;20026;-79
2022/05/04 03:54:38;;;;;;;11.98;8.13;;;;;;;;;;5040763;28;20105;-80
2022/05/04 03:57:05;;;;;;;12.38;8.90;;;;;;;;;;5019259;28;20056;-79
2022/05/04 03:59:34;;;;;;;14.55;8.77;;;;;;;;;;5026084;28;20047;-80
2022/05/04 04:02:01;;;;;;;13.07;8.35;;;;;;;;;;5041027;28;20033;-80
2022/05/04 04:04:27;;;;;;;13.60;8.82;;;10.50;99.90;;;;;;5030223;28;20088;-79
2022/05/04 04:06:54;;;;;;;12.45;7.93;;;10.50;99.90;;;;;;5016431;28;20022;-78
2022/05/04 04:09:24;;;;;;;11.98;8.70;;;10.50;99.90;;;;;;5004735;28;20125;-79
2022/05/04 04:11:54;;;;;;;14.63;8.93;;;;;;;;;;5016868;28;20025;-80
2022/05/04 04:14:20;;;;;;;14.65;9.55;;;;;;;;;;5017983;28;20017;-78
2022/05/04 04:16:48;;;;;;;14.50;10.05;;;10.40;99.90;;;;;;5022355;28;20033;-77
2022/05/04 04:19:15;;;;;;;13.93;10.38;;;10.30;99.90;;;;;;5022105;28;20034;-78
2022/05/04 04:21:50;;;;;;;16.38;10.63;;;;;;;;;;5025646;28;20026;-80
2022/05/04 04:24:18;;;;;;;13.88;9.40;;;10.60;99.90;;;;;;5046310;28;20400;-77
2022/05/04 04:26:44;;;;;;;13.02;9.55;;;10.40;99.90;;;;;;5030038;28;20448;-79
2022/05/04 04:29:11;;;;;;;10.93;8.43;;;10.40;99.90;;;;;;5036633;28;20029;-78
2022/05/04 04:31:46;;;;;;;13.60;9.25;;;10.40;99.90;;;;;;5029620;28;20030;-81
2022/05/04 04:34:17;;;;;;;13.55;9.73;;;10.40;99.90;;;;;;5022098;28;20097;-78
2022/05/04 04:36:43;;;;;;;13.50;8.98;;;10.40;99.90;;;;;;5022681;28;20500;-78
2022/05/04 04:39:09;;;;;;;12.05;8.68;;;10.40;99.90;;;;;;5021359;28;20120;-80
2022/05/04 04:41:35;;;;;;;12.48;8.57;;;10.40;99.90;;;;;;5029358;28;20025;-80
2022/05/04 04:44:01;;;;;;;12.35;8.77;;;10.60;99.90;;;;;;5016709;28;20040;-79
2022/05/04 04:46:27;;;;;;;11.43;8.73;;;10.40;99.90;;;;;;5017201;28;20026;-79
2022/05/04 04:48:54;;;;;;;11.30;8.48;;;10.40;99.90;;;;;;5019104;28;20029;-79
2022/05/04 04:51:20;;;;;;;12.82;8.90;;;10.40;99.90;;;;;;5017228;28;20021;-79
2022/05/04 04:54:05;;;;;;;12.27;8.25;;;10.40;99.90;;;;;;5025648;28;20022;-79
2022/05/04 04:56:31;;;;;;;12.85;7.75;;;;;;;;;;5026007;28;20021;-79
2022/05/04 04:58:57;;;;;;;11.30;8.88;;;;;;;;;;5040121;28;20025;-79
2022/05/04 05:01:23;;;;;;;10.30;7.95;;;;;;;;;;5028891;28;20025;-80
2022/05/04 05:03:49;;;;;;;9.18;7.70;;;;;;;;;;5053871;28;20028;-79
2022/05/04 05:06:18;;;;;;;10.88;8.15;;;;;;;;;;5047134;28;20048;-80
2022/05/04 05:16:25;;;;;;;13.48;8.25;;;;;;;;;;5041777;28;20055;-79
2022/05/04 05:18:52;;;;;;;13.90;10.88;;;10.60;99.90;;;;;;5036974;28;20053;-79
2022/05/04 05:21:18;;;;;;;11.48;8.65;;;10.60;99.90;;;;;;5048631;28;20097;-77
2022/05/04 05:23:46;;;;;;;13.00;8.88;;;;;;;;;;5047167;28;20052;-79
2022/05/04 05:26:12;;;;;;;11.25;8.73;;;10.60;99.90;;;;;;5046676;28;20053;-78
2022/05/04 05:28:38;;;;;;;14.88;8.85;;;10.60;99.90;;;;;;5051512;28;20123;-80
2022/05/04 05:31:04;;;;;;;14.23;9.48;;;10.70;99.90;;;;;;5045695;28;20033;-80
2022/05/04 05:33:31;;;;;;;15.13;8.82;;;10.80;99.90;;;;;;5040745;28;20349;-80
2022/05/04 05:35:57;;;;;;;12.18;8.25;;;10.80;99.90;;;;;;5032970;28;20022;-79
2022/05/04 05:38:28;;;;;;;15.70;9.88;;;11.40;99.90;;;;;;5037117;28;20037;-80
2022/05/04 05:40:55;;;;;;;11.60;8.30;;;11.50;99.90;;;;;;5044289;28;20497;-80
2022/05/04 05:43:23;;;;;;;10.82;7.88;;;;;;;;;;5033558;28;20014;-79
2022/05/04 05:45:50;;;;;;;14.90;8.57;;;12.70;99.90;;;;;;5043134;28;20048;-79
2022/05/04 05:48:19;;;;;;;11.23;8.05;;;13.00;99.90;;;;;;5045073;28;20029;-78
2022/05/04 05:50:48;;;;;;;13.60;7.72;;;13.10;99.90;;;;;;5039133;28;20030;-78
2022/05/04 05:53:17;;;;;;;10.10;7.32;;;13.30;99.90;;;;;;5040700;28;20030;-79
2022/05/04 05:55:47;;;;;;;10.88;8.02;;;13.30;99.90;;;;;;5041283;28;20033;-79
2022/05/04 05:58:28;;;;;;;12.63;8.45;;;13.50;99.90;;;;;;5030439;28;20033;-80
2022/05/04 06:00:55;;;;;;;13.48;8.57;;;13.50;99.90;;;;;;5046105;28;20044;-80
2022/05/04 06:03:41;;;;;;;13.88;9.15;;;13.30;99.90;;;;;;5039564;28;20056;-80
2022/05/04 06:06:10;;;;;;;12.70;8.88;;;13.20;99.90;;;;;;5040859;28;20107;-80
2022/05/04 06:08:37;;;;;;;11.35;9.05;;;13.20;99.90;;;;;;5042288;28;20030;-80
2022/05/04 06:11:05;;;;;;;13.68;9.75;;;13.10;99.90;;;;;;5047851;28;20033;-79
2022/05/04 06:14:01;;;;;;;13.52;9.63;;;13.00;99.90;;;;;;5040890;28;20026;-78
2022/05/04 06:16:36;;;;;;;15.90;8.45;;;13.10;99.90;;;;;;5036989;28;20041;-77
2022/05/04 06:19:04;;;;;;;15.07;9.07;;;13.20;99.90;;;;;;5034594;28;20028;-78
2022/05/04 06:21:34;;;;;;;12.90;9.43;;;;;;;;;;5047894;28;20410;-78
2022/05/04 06:24:00;;;;;;;18.63;9.63;;;;;;;;;;5032735;28;20033;-81
2022/05/04 06:26:26;;;;;;;15.57;9.18;;;13.40;99.90;;;;;;5022390;28;20033;-80
2022/05/04 06:28:52;;;;;;;17.65;10.05;;;13.40;99.90;;;;;;5035127;28;20025;-81
2022/05/04 06:34:08;;;;;;;13.35;8.88;;;13.50;99.90;;;;;;5043623;28;20079;-80
2022/05/04 06:36:41;;;;;;;16.75;8.73;;;13.50;99.90;;;;;;5032014;28;20083;-79
2022/05/04 06:39:10;;;;;;;17.67;9.25;;;13.60;99.90;;;;;;5036236;28;20018;-79
2022/05/04 06:41:38;;;;;;;14.63;9.55;;;13.80;99.90;;;;;;5037658;28;20023;-79
2022/05/04 06:44:05;;;;;;;15.68;10.05;;;13.90;99.90;;;;;;5040899;28;20063;-81
2022/05/04 06:46:31;;;;;;;14.35;9.40;;;13.90;99.90;;;;;;5032902;28;20018;-81
2022/05/04 06:49:04;;;;;;;15.90;9.48;;;13.90;99.90;;;;;;5046141;28;20334;-81
2022/05/04 06:51:30;;;;;;;14.95;9.02;;;;;;;;;;5046697;28;20092;-83
2022/05/04 06:53:56;;;;;;;14.23;8.82;;;14.10;99.90;;;;;;5048253;28;20056;-81
2022/05/04 06:56:22;;;;;;;16.23;8.63;;;14.30;99.90;;;;;;5047905;28;20420;-81
2022/05/04 06:58:48;;;;;;;14.75;8.38;;;14.50;99.90;;;;;;5048243;28;20045;-84
2022/05/04 07:01:14;;;;;;;11.98;7.88;;;;;;;;;;5047369;28;20030;-80
2022/05/04 07:03:40;;;;;;;12.25;8.25;;;14.70;99.90;;;;;;5045800;28;20485;-82
2022/05/04 07:06:06;;;;;;;15.82;9.20;;;14.70;99.90;;;;;;5038509;28;20029;-79
2022/05/04 07:08:32;;;;;;;12.30;7.85;;;;;;;;;;5038371;28;20028;-83
2022/05/04 07:10:58;;;;;;;13.27;8.32;;;14.90;99.90;;;;;;5040912;28;20025;-80
2022/05/04 07:13:23;;;;;;;13.65;7.78;;;15.10;99.90;;;;;;5040239;28;20032;-79
2022/05/04 07:15:57;;;;;;;17.77;8.10;;;15.20;99.90;;;;;;5039775;28;20395;-81
2022/05/04 07:18:23;;;;;;;15.70;7.65;;;15.30;99.90;;;;;;5039878;28;20179;-79
2022/05/04 07:20:49;;;;;;;11.38;7.75;;;15.40;99.90;;;;;;5029209;28;20030;-86
2022/05/04 07:23:17;;;;;;;11.90;7.95;;;15.50;99.90;;;;;;5032549;28;20052;-79
2022/05/04 07:25:43;;;;;;;13.07;8.10;;;15.70;99.90;;;;;;5032404;28;20056;-78
2022/05/04 07:28:09;;;;;;;10.15;6.90;;;15.90;99.90;;;;;;5031215;28;20042;-80
2022/05/04 07:30:38;;;;;;;12.95;7.55;;;15.90;99.90;;;;;;5031709;28;20054;-80
2022/05/04 07:33:04;;;;;;;11.20;8.27;;;16.00;99.90;;;;;;5047372;28;20029;-80
2022/05/04 07:35:29;;;;;;;12.25;7.70;;;16.00;99.90;;;;;;5032790;28;20079;-78
2022/05/04 07:38:01;;;;;;;14.18;8.15;;;16.20;99.90;;;;;;5030066;28;20025;-80
2022/05/04 07:43:11;;;;;;;15.48;7.40;;;16.50;99.90;;;;;;5037262;28;20078;-82
2022/05/04 07:45:37;;;;;;;12.38;7.70;;;16.50;99.90;;;;;;5034503;28;20089;-83
2022/05/04 07:48:02;;;;;;;12.30;7.25;;;16.50;99.90;;;;;;5033669;28;20202;-79
2022/05/04 07:50:28;;;;;;;11.63;7.47;;;16.60;99.90;;;;;;5026901;28;20525;-80
2022/05/04 07:53:01;;;;;;;13.75;8.70;;;16.70;99.90;;;;;;5029868;28;20036;-80
2022/05/04 07:55:47;;;;;;;11.80;7.13;;;16.80;99.90;;;;;;5032820;28;20025;-78
2022/05/04 07:58:13;;;;;;;10.07;6.90;;;17.10;99.90;;;;;;5031390;28;20478;-79
2022/05/04 08:06:07;;;;;;;9.55;7.20;;;17.30;99.90;;;;;;5035776;28;20097;-82
2022/05/04 08:08:33;;;;;;;11.55;8.20;;;17.40;99.60;;;;;;5035448;28;20056;-81
2022/05/04 08:10:58;;;;;;;10.88;7.75;;;17.40;99.30;;;;;;5041058;28;20037;-84
2022/05/04 08:13:24;;;;;;;16.50;8.13;;;17.50;99.70;;;;;;5043869;28;20034;-78
2022/05/04 08:15:50;;;;;;;12.00;7.60;;;;;;;;;;5066836;28;20029;-87
2022/05/04 08:18:16;;;;;;;11.77;7.22;;;17.50;99.00;;;;;;5066014;28;20045;-87
2022/05/04 08:20:42;;;;;;;8.68;6.68;;;17.60;98.80;;;;;;5054851;28;20091;-78
2022/05/04 08:23:10;;;;;;;12.00;7.47;;;;;;;;;;5056410;28;20481;-81
2022/05/04 08:25:35;;;;;;;10.15;6.82;;;17.90;98.30;;;;;;5049798;28;20059;-81
2022/05/04 08:28:01;;;;;;;9.00;7.20;;;18.10;98.10;;;;;;5038176;28;20045;-81
2022/05/04 08:30:27;;;;;;;8.98;6.82;;;18.30;97.20;;;;;;5041535;28;20081;-77
2022/05/04 08:32:53;;;;;;;10.35;7.10;;;18.30;97.50;;;;;;5040473;28;20038;-79
2022/05/04 08:35:19;;;;;;;12.70;7.28;;;18.40;97.10;;;;;;5036705;28;20029;-78
2022/05/04 08:37:45;;;;;;;10.00;7.82;;;18.60;96.40;;;;;;5033354;28;20028;-78
2022/05/04 08:40:11;;;;;;;9.15;6.93;;;18.40;96.00;;;;;;5047828;22;20056;-84
2022/05/04 08:42:42;;;;;;;9.48;6.82;;;19.70;96.60;;;;;;5041670;28;20033;-85
2022/05/04 08:45:12;;;;;;;11.00;7.00;;;18.50;96.10;;;;;;5043568;28;20025;-83
2022/05/04 08:47:40;;;;;;;13.15;6.72;;;18.60;96.20;;;;;;5042913;28;20109;-85
2022/05/04 08:50:22;;;;;;;10.25;7.05;;;18.80;95.20;;;;;;5045934;28;20026;-85
2022/05/04 08:52:54;;;;;;;9.27;6.63;;;;;;;;;;5022622;28;20117;-83
2022/05/04 08:55:23;;;;;;;9.88;6.55;;;19.00;94.90;;;;;;5020194;28;20047;-83
2022/05/04 08:57:49;;;;;;;10.57;7.40;;;19.20;95.10;;;;;;4986513;28;20034;-82
2022/05/04 09:00:17;;;;;;;11.30;6.90;;;19.30;94.00;;;;;;5017281;28;20112;-84
2022/05/04 09:02:43;;;;;;;10.32;7.18;;;;;;;;;;5025906;28;20025;-83
2022/05/04 09:05:29;;;;;;;8.35;6.28;;;19.50;94.00;;;;;;5030091;28;20764;-85
2022/05/04 09:07:57;;;;;;;10.95;6.90;;;19.60;93.60;;;;;;5032349;28;20034;-84
2022/05/04 09:10:26;;;;;;;10.35;6.85;;;20.00;92.10;;;;;;5025237;28;20108;-85
2022/05/04 09:12:52;;;;;;;9.63;6.20;;;21.20;92.60;;;;;;5023146;28;20026;-84
2022/05/04 09:15:29;;;;;;;9.13;6.43;;;20.10;92.50;;;;;;5014727;28;20026;-83
2022/05/04 09:17:59;;;;;;;12.38;7.10;;;20.30;91.20;;;;;;5017919;28;20045;-83
2022/05/04 09:20:48;;;;;;;10.15;6.40;;;20.40;90.00;;;;;;5015936;28;20026;-84
2022/05/04 09:23:28;;;;;;;8.20;6.25;;;20.50;88.50;;;;;;5023218;28;20071;-83
2022/05/04 09:26:07;;;;;;;10.07;5.97;;;20.50;88.40;;;;;;5022147;28;20026;-83
2022/05/04 09:28:34;;;;;;;8.63;6.33;;;20.50;88.90;;;;;;5017959;28;20033;-84
2022/05/04 09:31:05;;;;;;;9.93;7.07;;;20.70;88.60;;;;;;5017590;28;20372;-84
2022/05/04 09:33:34;;;;;;;9.70;7.57;;;20.90;87.00;;;;;;5019017;28;20033;-83
2022/05/04 09:36:01;;;;;;;9.85;6.72;;;20.80;86.90;;;;;;5019390;28;20389;-84
2022/05/04 09:46:52;;;;;;;10.30;7.05;;;20.70;86.70;;;;;;5019346;28;20072;-84
2022/05/04 09:49:22;;;;;;;9.35;7.13;;;20.70;86.80;;;;;;5014514;28;20029;-81
2022/05/04 09:51:53;;;;;;;9.85;7.63;;;20.60;85.80;;;;;;5010710;28;20030;-80
2022/05/04 09:54:27;;;;;;;10.68;6.78;;;20.70;86.70;;;;;;5012893;28;20041;-82
2022/05/04 09:56:54;;;;;;;7.72;6.43;;;20.80;86.20;;;;;;5016690;28;20522;-83
2022/05/04 09:59:29;;;;;;;11.55;7.30;;;20.70;85.30;;;;;;5019900;28;20712;-84
2022/05/04 10:01:55;;;;;;;10.02;6.50;;;20.60;85.50;;;;;;5021141;28;20042;-80
2022/05/04 10:04:23;;;;;;;9.30;6.45;;;;;;;;;;5019733;28;20045;-83
2022/05/04 10:06:49;;;;;;;11.25;7.05;;;19.80;84.70;;;;;;5019687;28;20022;-82
2022/05/04 10:09:16;;;;;;;12.18;6.65;;;20.90;85.60;;;;;;5017214;28;20030;-83
2022/05/04 10:11:42;;;;;;;9.73;6.30;;;21.30;83.30;;;;;;5017448;28;20057;-81
2022/05/04 10:14:15;;;;;;;8.57;6.38;;;21.50;82.90;;;;;;5013510;28;20488;-84
2022/05/04 10:16:59;;;;;;;7.38;6.50;;;21.60;83.40;;;;;;5019040;28;20029;-84
2022/05/04 10:19:30;;;;;;;13.60;7.13;;;21.60;82.00;;;;;;5019425;28;20085;-83
2022/05/04 10:21:59;;;;;;;10.32;6.90;;;21.60;81.40;;;;;;5017667;28;20439;-85
2022/05/04 10:24:28;;;;;;;8.50;6.63;;;21.90;80.50;;;;;;5028375;28;20392;-84
2022/05/04 10:27:21;;;;;;;9.23;6.45;;;21.90;79.60;;;;;;5020365;28;20028;-82
2022/05/04 10:32:36;;;;;;;11.68;6.47;;;22.00;80.10;;;;;;5024854;28;20070;-82
2022/05/04 10:35:09;;;;;;;9.40;6.47;;;22.30;79.40;;;;;;5041826;28;20083;-82
2022/05/04 10:37:35;;;;;;;9.55;6.05;;;;;;;;;;5022259;28;20498;-83
2022/05/04 10:40:07;;;;;;;8.45;6.38;;;;;;;;;;5031409;28;20034;-84
2022/05/04 10:43:00;;;;;;;9.50;5.90;;;22.30;77.90;;;;;;5024486;28;20029;-80
2022/05/04 10:45:31;;;;;;;7.80;5.93;;;22.70;75.70;;;;;;5022252;28;20053;-81
2022/05/04 10:48:19;;;;;;;7.28;5.53;;;22.60;76.20;;;;;;5025627;28;20053;-80
2022/05/04 10:51:10;;;;;;;7.97;6.00;;;22.50;75.40;;;;;;5024909;28;20032;-81
2022/05/04 10:53:43;;;;;;;8.52;6.57;;;22.40;75.60;;;;;;5026087;28;20025;-82
2022/05/04 10:56:13;;;;;;;8.93;5.80;;;22.10;75.60;;;;;;5019110;28;21592;-81
2022/05/04 10:58:52;;;;;;;9.13;5.70;;;21.60;77.00;;;;;;5018328;28;20054;-82
2022/05/04 11:01:21;;;;;;;7.40;5.82;;;21.30;78.00;;;;;;5018828;28;20178;-84
2022/05/04 11:04:06;;;;;;;7.93;5.88;;;21.30;79.40;;;;;;5020675;28;20480;-81
2022/05/04 11:06:40;;;;;;;8.32;5.60;;;21.10;79.80;;;;;;5014569;28;20431;-83
2022/05/04 11:09:29;;;;;;;8.48;5.55;;;21.00;80.50;;;;;;5020041;28;20022;-83
2022/05/04 11:11:59;;;;;;;7.85;5.35;;;21.00;79.90;;;;;;5016734;28;20046;-80
2022/05/04 11:14:26;;;;;;;8.05;5.57;;;21.10;80.00;;;;;;5012226;28;20030;-84
2022/05/04 11:16:54;;;;;;;7.38;5.93;;;21.10;80.10;;;;;;5019262;28;20045;-84
2022/05/04 11:19:22;;;;;;;7.63;5.80;;;21.10;80.40;;;;;;5010106;28;20030;-82
2022/05/04 11:21:48;;;;;;;11.23;6.00;;;;;;;;;;5022546;28;20128;-83
2022/05/04 11:24:16;;;;;;;10.82;6.57;;;20.80;79.70;;;;;;5011349;28;20851;-85
2022/05/04 11:26:44;;;;;;;7.38;6.00;;;20.20;79.80;;;;;;5010299;28;20056;-85
2022/05/04 11:29:19;;;;;;;8.32;6.05;;;20.80;80.30;;;;;;5012487;28;20120;-82
2022/05/04 11:31:55;;;;;;;9.45;6.25;;;20.70;79.70;;;;;;5006886;28;20093;-83
2022/05/04 11:34:26;;;;;;;11.48;6.20;;;21.00;78.90;;;;;;5017248;28;24191;-82
2022/05/04 11:36:54;;;;;;;11.75;6.55;;;21.30;78.30;;;;;;5021607;28;20030;-83
2022/05/04 11:39:25;;;;;;;10.90;6.20;;;21.70;77.50;;;;;;5032515;28;20053;-83
2022/05/04 11:41:53;;;;;;;8.40;5.63;;;21.90;75.60;;;;;;5031691;28;20049;-80
2022/05/04 11:44:23;;;;;;;11.70;6.25;;;22.10;74.80;;;;;;5023826;28;20026;-83
2022/05/04 11:47:00;;;;;;;9.20;6.22;;;22.40;74.10;;;;;;5035095;28;20044;-84
2022/05/04 11:49:28;;;;;;;12.45;6.05;;;22.20;74.30;;;;;;5032773;28;20030;-84
2022/05/04 11:51:54;;;;;;;7.45;6.07;;;22.60;72.90;;;;;;5031173;28;20034;-83
2022/05/04 11:54:21;;;;;;;8.32;6.00;;;;;;;;;;5032991;28;20053;-82
2022/05/04 11:56:47;;;;;;;12.48;6.05;;;22.70;72.90;;;;;;5023314;28;20037;-82
2022/05/04 11:59:13;;;;;;;6.38;5.57;;;;;;;;;;5012390;28;20132;-82
2022/05/04 12:01:40;;;;;;;6.65;5.18;;;22.50;70.50;;;;;;5010769;28;20112;-81
2022/05/04 12:04:08;;;;;;;7.93;5.70;;;22.40;70.80;;;;;;5010185;28;20038;-83
2022/05/04 12:06:35;;;;;;;11.10;5.88;;;22.30;71.30;;;;;;5020508;28;20030;-82
2022/05/04 12:09:03;;;;;;;8.02;5.28;;;22.30;72.20;;;;;;5008907;28;20060;-82
2022/05/04 12:11:29;;;;;;;8.15;5.35;;;22.20;72.10;;;;;;5025586;28;20037;-82
2022/05/04 12:13:59;;;;;;;8.10;5.60;;;22.20;72.20;;;;;;5035291;28;20066;-84
2022/05/04 12:16:25;;;;;;;9.20;5.60;;;;;;;;;;5022570;28;20032;-84
2022/05/04 12:18:51;;;;;;;10.60;5.28;;;;;;;;;;5029749;28;20042;-83
2022/05/04 12:21:21;;;;;;;8.15;5.50;;;22.60;71.80;;;;;;5022982;28;20030;-83
2022/05/04 12:23:49;;;;;;;8.45;5.40;;;23.10;70.60;;;;;;5023210;28;20026;-85
2022/05/04 12:26:15;;;;;;;9.77;5.60;;;24.10;69.40;;;;;;5017686;28;20495;-83
2022/05/04 12:28:44;;;;;;;7.25;5.30;;;24.00;69.00;;;;;;5024069;28;20038;-82
2022/05/04 12:33:56;;;;;;;11.43;5.47;;;23.80;67.20;;;;;;5031215;28;20091;-81
2022/05/04 12:36:25;;;;;;;6.65;4.82;;;24.20;67.20;;;;;;5014233;28;20030;-81
2022/05/04 12:38:52;;;;;;;8.23;5.10;;;24.00;66.60;;;;;;5020947;28;20032;-83
2022/05/04 12:41:19;;;;;;;7.00;5.55;;;24.00;66.60;;;;;;5018391;28;20033;-82
2022/05/04 12:43:47;;;;;;;9.63;6.22;;;23.30;70.60;;;;;;5025538;28;20026;-81
2022/05/04 12:46:15;;;;;;;9.75;7.15;;;23.30;70.50;;;;;;5021190;28;20032;-80
2022/05/04 12:48:42;;;;;;;7.65;5.70;;;22.60;71.30;;;;;;5024034;28;20048;-82
2022/05/04 12:51:09;;;;;;;9.68;6.90;;;24.90;73.10;;;;;;5029074;28;20030;-81
2022/05/04 12:53:38;;;;;;;12.23;7.28;;;22.20;73.00;;;;;;5018718;28;20026;-84
2022/05/04 12:58:49;;;;;;;10.40;6.35;;;25.30;76.20;;;;;;5012694;28;20030;-82
2022/05/04 13:01:15;;;;;;;9.75;6.35;;;;;;;;;;5014180;28;20487;-79
2022/05/04 13:03:41;;;;;;;11.57;6.07;;;22.60;71.80;;;;;;5021575;28;20059;-81
2022/05/04 13:06:06;;;;;;;10.93;6.40;;;22.60;72.30;;;;;;5017078;28;20029;-82
2022/05/04 13:08:32;;;;;;;8.38;5.90;;;22.70;70.50;;;;;;5016747;28;20087;-83
2022/05/04 13:10:58;;;;;;;10.32;5.97;;;22.50;70.50;;;;;;5016321;28;20101;-80
2022/05/04 13:13:25;;;;;;;7.72;6.20;;;22.40;71.60;;;;;;5019289;28;20523;-82
2022/05/04 13:15:51;;;;;;;9.57;7.07;;;;;;;;;;5018522;28;20106;-82
2022/05/04 13:18:18;;;;;;;9.60;6.18;;;22.20;74.00;;;;;;5020279;28;20022;-81
2022/05/04 13:20:44;;;;;;;8.88;6.30;;;21.90;74.70;;;;;;5019834;28;20056;-82
2022/05/04 13:23:10;;;;;;;8.82;5.80;;;21.90;75.50;;;;;;5015286;28;20030;-82
2022/05/04 13:25:36;;;;;;;7.30;5.70;;;21.60;78.80;;;;;;5016398;28;20052;-83
2022/05/04 13:28:02;;;;;;;6.80;5.40;;;21.80;76.30;;;;;;5020239;28;20030;-82
2022/05/04 13:30:28;;;;;;;11.75;6.38;;;21.80;76.00;;;;;;5017991;28;20425;-83
2022/05/04 13:32:53;;;;;;;7.32;5.80;;;21.90;75.90;;;;;;5017064;28;20053;-83
2022/05/04 13:35:21;;;;;;;8.70;5.40;;;22.20;74.70;;;;;;5020879;28;20105;-82
2022/05/04 13:37:47;;;;;;;5.75;5.15;;;22.20;75.20;;;;;;5017715;28;20033;-81
2022/05/04 13:40:13;;;;;;;7.20;5.10;;;22.50;76.10;;;;;;5016872;28;20033;-82
2022/05/04 13:42:41;;;;;;;7.82;5.50;;;22.70;76.30;;;;;;5018978;28;20041;-82
2022/05/04 13:45:10;;;;;;;10.23;5.60;;;22.70;74.10;;;;;;5019076;28;20034;-80
2022/05/04 13:47:36;;;;;;;6.50;5.07;;;22.80;75.40;;;;;;5016948;28;20613;-82
2022/05/04 13:50:03;;;;;;;8.02;5.30;;;22.90;70.90;;;;;;5014345;28;20038;-83
2022/05/04 13:55:13;;;;;;;6.82;4.57;;;23.00;71.10;;;;;;5020721;28;20404;-84
2022/05/04 13:57:39;;;;;;;9.25;5.38;;;23.00;70.80;;;;;;5011426;28;20022;-84
2022/05/04 14:00:06;;;;;;;7.95;4.80;;;23.20;71.20;;;;;;5035172;28;20022;-80
2022/05/04 14:02:32;;;;;;;5.30;4.57;;;22.50;71.40;;;;;;5014195;28;20030;-82